createdAt,value
2019-03-31T00:00:07.558Z,6.20
2019-03-31T00:04:14.302Z,6.30
2019-03-31T00:08:19.258Z,6.30
2019-03-31T00:12:24.405Z,6.30
2019-03-31T00:16:29.482Z,6.20
2019-03-31T00:20:34.498Z,6.20
2019-03-31T00:24:39.567Z,6.20
2019-03-31T00:28:44.590Z,6.10
2019-03-31T00:32:49.622Z,6.00
2019-03-31T00:36:54.622Z,6.00
2019-03-31T00:40:59.646Z,6.10
2019-03-31T00:45:07.768Z,6.10
2019-03-31T00:49:12.894Z,6.00
2019-03-31T00:53:17.875Z,6.10
2019-03-31T00:57:22.992Z,6.10
2019-03-31T01:01:36.221Z,6.00
2019-03-31T01:05:38.650Z,6.00
2019-03-31T01:09:44.273Z,6.00
2019-03-31T01:13:49.520Z,5.90
2019-03-31T01:17:55.277Z,5.90
2019-03-31T01:22:00.501Z,5.90
2019-03-31T01:26:05.704Z,6.00
2019-03-31T01:30:12.117Z,6.10
2019-03-31T01:34:17.190Z,6.20
2019-03-31T01:38:22.313Z,6.20
2019-03-31T01:42:27.309Z,6.20
2019-03-31T01:46:32.455Z,6.20
2019-03-31T01:50:37.477Z,6.00
2019-03-31T01:54:42.518Z,5.90
2019-03-31T01:58:47.531Z,5.90
2019-03-31T02:02:52.536Z,5.80
2019-03-31T02:06:57.602Z,5.70
2019-03-31T02:11:03.575Z,5.70
2019-03-31T02:15:08.866Z,5.70
2019-03-31T02:19:14.269Z,5.70
2019-03-31T02:23:19.274Z,5.70
2019-03-31T02:27:24.348Z,5.80
2019-03-31T02:31:29.357Z,5.80
2019-03-31T02:35:34.358Z,5.80
2019-03-31T02:39:39.369Z,5.90
2019-03-31T02:43:44.391Z,5.90
2019-03-31T02:47:49.389Z,5.90
2019-03-31T02:51:54.466Z,5.90
2019-03-31T02:56:00.002Z,5.80
2019-03-31T03:00:06.686Z,5.80
2019-03-31T03:04:13.343Z,5.70
2019-03-31T03:08:19.778Z,5.70
2019-03-31T03:12:27.600Z,5.70
2019-03-31T03:16:32.599Z,5.70
2019-03-31T03:20:37.602Z,5.80
2019-03-31T03:24:42.583Z,5.90
2019-03-31T03:28:47.641Z,6.00
2019-03-31T03:33:13.272Z,6.00
2019-03-31T03:36:59.342Z,6.00
2019-03-31T03:41:04.342Z,6.00
2019-03-31T03:45:09.693Z,6.00
2019-03-31T03:49:14.816Z,6.00
2019-03-31T03:53:20.082Z,5.90
2019-03-31T03:57:25.131Z,5.90
2019-03-31T04:01:31.723Z,6.00
2019-03-31T04:05:36.677Z,6.00
2019-03-31T04:09:41.668Z,6.00
2019-03-31T04:13:46.668Z,5.90
2019-03-31T04:17:51.658Z,5.90
2019-03-31T04:21:56.683Z,5.70
2019-03-31T04:26:01.781Z,5.60
2019-03-31T04:30:06.858Z,5.50
2019-03-31T04:34:11.839Z,5.40
2019-03-31T04:38:16.841Z,5.20
2019-03-31T04:42:21.837Z,5.00
2019-03-31T04:46:26.846Z,4.90
2019-03-31T04:50:31.832Z,4.90
2019-03-31T04:54:36.824Z,4.80
2019-03-31T04:58:42.433Z,4.70
2019-03-31T05:02:47.463Z,4.60
2019-03-31T05:06:52.455Z,4.70
2019-03-31T05:10:57.525Z,4.70
2019-03-31T05:15:02.506Z,5.00
2019-03-31T05:19:07.535Z,5.50
2019-03-31T05:23:12.534Z,6.00
2019-03-31T05:27:17.537Z,6.80
2019-03-31T05:31:22.607Z,7.30
2019-03-31T05:35:27.869Z,8.40
2019-03-31T05:39:33.285Z,9.70
2019-03-31T05:43:38.569Z,11.00
2019-03-31T05:47:43.869Z,11.30
2019-03-31T05:51:49.225Z,11.50
2019-03-31T05:55:54.503Z,12.80
2019-03-31T05:59:59.799Z,14.50
2019-03-31T06:04:05.321Z,16.30
2019-03-31T06:08:10.630Z,17.90
2019-03-31T06:12:16.037Z,19.10
2019-03-31T06:16:21.345Z,20.40
2019-03-31T06:20:26.657Z,21.60
2019-03-31T06:24:31.669Z,21.60
2019-03-31T06:28:38.839Z,21.10
2019-03-31T06:32:44.406Z,21.50
2019-03-31T06:36:49.707Z,22.50
2019-03-31T06:40:56.640Z,23.30
2019-03-31T06:45:01.934Z,23.50
2019-03-31T06:49:07.231Z,24.40
2019-03-31T06:53:12.542Z,25.40
2019-03-31T06:57:17.837Z,26.20
2019-03-31T07:01:23.117Z,26.50
2019-03-31T07:05:28.461Z,26.80
2019-03-31T07:09:33.745Z,27.30
2019-03-31T07:13:39.033Z,28.40
2019-03-31T07:17:44.405Z,29.00
2019-03-31T07:21:49.742Z,29.20
2019-03-31T07:25:55.018Z,29.60
2019-03-31T07:30:00.430Z,29.80
2019-03-31T07:34:05.794Z,30.00
2019-03-31T07:38:11.113Z,30.50
2019-03-31T07:42:16.412Z,30.80
2019-03-31T07:46:21.692Z,31.60
2019-03-31T07:50:28.349Z,32.30
2019-03-31T07:54:33.783Z,33.20
2019-03-31T07:58:39.158Z,33.00
2019-03-31T08:02:44.393Z,32.80
2019-03-31T08:06:49.672Z,33.00
2019-03-31T08:10:55.017Z,33.50
2019-03-31T08:15:00.391Z,34.00
2019-03-31T08:19:05.698Z,33.50
2019-03-31T08:23:10.985Z,33.10
2019-03-31T08:27:16.522Z,33.00
2019-03-31T08:31:21.869Z,33.20
2019-03-31T08:35:27.134Z,33.50
2019-03-31T08:39:32.485Z,33.50
2019-03-31T08:43:37.773Z,33.20
2019-03-31T08:47:43.077Z,33.30
2019-03-31T08:51:48.443Z,33.50
2019-03-31T08:55:53.732Z,32.70
2019-03-31T08:59:59.998Z,32.60
2019-03-31T09:04:05.294Z,33.20
2019-03-31T09:08:10.598Z,33.70
2019-03-31T09:12:16.119Z,32.80
2019-03-31T09:16:21.387Z,29.90
2019-03-31T09:20:27.746Z,29.70
2019-03-31T09:24:33.029Z,29.90
2019-03-31T09:28:38.313Z,27.10
2019-03-31T09:32:43.574Z,24.80
2019-03-31T09:36:48.890Z,24.00
2019-03-31T09:40:54.174Z,25.20
2019-03-31T09:45:00.868Z,25.60
2019-03-31T09:49:06.367Z,26.20
2019-03-31T09:53:11.667Z,25.00
2019-03-31T09:57:17.021Z,27.30
2019-03-31T10:01:22.361Z,28.80
2019-03-31T10:05:27.647Z,29.50
2019-03-31T10:09:33.225Z,30.20
2019-03-31T10:13:38.558Z,29.00
2019-03-31T10:17:43.977Z,28.20
2019-03-31T10:21:49.263Z,29.50
2019-03-31T10:25:54.930Z,30.90
2019-03-31T10:30:00.451Z,28.00
2019-03-31T10:34:06.522Z,26.00
2019-03-31T10:38:12.988Z,26.30
2019-03-31T10:42:18.331Z,27.90
2019-03-31T10:46:24.671Z,26.50
2019-03-31T10:50:29.948Z,25.90
2019-03-31T10:54:35.309Z,26.00
2019-03-31T10:58:40.599Z,25.60
2019-03-31T11:02:45.875Z,25.10
2019-03-31T11:06:59.012Z,23.60
2019-03-31T11:10:58.237Z,23.50
2019-03-31T11:15:03.818Z,25.40
2019-03-31T11:19:09.187Z,27.60
2019-03-31T11:23:21.854Z,25.00
2019-03-31T11:27:27.509Z,22.70
2019-03-31T11:31:32.806Z,22.50
2019-03-31T11:35:38.186Z,22.40
2019-03-31T11:39:43.601Z,21.70
2019-03-31T11:43:48.863Z,22.50
2019-03-31T11:47:54.146Z,23.40
2019-03-31T11:51:59.485Z,24.30
2019-03-31T11:56:05.966Z,24.20
2019-03-31T12:00:17.333Z,22.40
2019-03-31T12:04:22.667Z,20.10
2019-03-31T12:08:28.352Z,19.30
2019-03-31T12:12:35.717Z,18.90
2019-03-31T12:16:41.157Z,18.50
2019-03-31T12:20:46.466Z,17.70
2019-03-31T12:24:51.745Z,17.60
2019-03-31T12:28:57.015Z,16.60
2019-03-31T12:33:02.297Z,16.20
2019-03-31T12:37:07.595Z,16.70
2019-03-31T12:41:12.881Z,17.20
2019-03-31T12:45:18.174Z,17.00
2019-03-31T12:49:23.488Z,17.00
2019-03-31T12:53:28.770Z,17.00
2019-03-31T12:57:34.062Z,17.00
2019-03-31T13:01:39.333Z,16.50
2019-03-31T13:05:44.666Z,15.90
2019-03-31T13:09:50.147Z,15.70
2019-03-31T13:13:55.356Z,15.30
2019-03-31T13:18:00.717Z,15.20
2019-03-31T13:22:07.075Z,15.20
2019-03-31T13:26:12.369Z,15.50
2019-03-31T13:30:17.790Z,15.70
2019-03-31T13:34:23.154Z,15.70
2019-03-31T13:38:28.444Z,16.00
2019-03-31T13:42:33.737Z,16.00
2019-03-31T13:46:39.028Z,15.40
2019-03-31T13:50:44.328Z,15.40
2019-03-31T13:54:49.592Z,15.40
2019-03-31T13:58:55.215Z,15.20
2019-03-31T14:03:00.462Z,14.90
2019-03-31T14:07:05.753Z,14.50
2019-03-31T14:11:11.049Z,13.80
2019-03-31T14:15:19.416Z,13.40
2019-03-31T14:19:25.297Z,13.40
2019-03-31T14:23:31.965Z,13.20
2019-03-31T14:27:38.833Z,13.20
2019-03-31T14:31:44.477Z,13.20
2019-03-31T14:35:49.928Z,13.30
2019-03-31T14:39:55.213Z,13.30
2019-03-31T14:44:00.502Z,13.30
2019-03-31T14:48:06.239Z,13.20
2019-03-31T14:52:26.284Z,13.00
2019-03-31T14:56:18.741Z,12.80
2019-03-31T15:00:24.242Z,12.40
2019-03-31T15:04:29.958Z,12.00
2019-03-31T15:08:36.362Z,11.60
2019-03-31T15:12:41.897Z,11.30
2019-03-31T15:16:48.576Z,11.20
2019-03-31T15:20:54.210Z,11.10
2019-03-31T15:24:59.465Z,11.10
2019-03-31T15:29:08.589Z,11.10
2019-03-31T15:33:13.869Z,11.20
2019-03-31T15:37:19.343Z,11.00
2019-03-31T15:41:24.625Z,10.70
2019-03-31T15:45:31.213Z,10.60
2019-03-31T15:49:37.544Z,10.70
2019-03-31T15:53:43.163Z,11.00
2019-03-31T15:57:48.910Z,11.30
2019-03-31T16:01:54.208Z,11.30
2019-03-31T16:05:59.497Z,11.30
2019-03-31T16:10:06.482Z,11.30
2019-03-31T16:14:11.901Z,11.10
2019-03-31T16:18:18.788Z,11.10
2019-03-31T16:22:24.923Z,10.90
2019-03-31T16:26:30.349Z,10.60
2019-03-31T16:30:36.893Z,10.20
2019-03-31T16:34:42.869Z,10.00
2019-03-31T16:38:48.234Z,10.00
2019-03-31T16:42:53.535Z,9.90
2019-03-31T16:46:58.837Z,9.80
2019-03-31T16:51:04.441Z,9.80
2019-03-31T16:55:09.897Z,9.60
2019-03-31T16:59:15.178Z,9.50
2019-03-31T17:03:20.471Z,9.50
2019-03-31T17:07:26.758Z,9.50
2019-03-31T17:11:31.989Z,9.50
2019-03-31T17:15:37.276Z,9.50
2019-03-31T17:19:42.621Z,9.40
2019-03-31T17:23:47.901Z,9.30
2019-03-31T17:27:53.181Z,9.30
2019-03-31T17:31:58.590Z,9.30
2019-03-31T17:36:03.954Z,9.30
2019-03-31T17:40:09.471Z,9.30
2019-03-31T17:44:14.796Z,9.30
2019-03-31T17:48:20.508Z,9.30
2019-03-31T17:52:27.380Z,9.20
2019-03-31T17:56:32.698Z,9.10
2019-03-31T18:00:37.979Z,8.90
2019-03-31T18:04:43.676Z,8.90
2019-03-31T18:08:49.283Z,8.80
2019-03-31T18:12:54.615Z,8.80
2019-03-31T18:16:59.918Z,8.80
2019-03-31T18:21:05.193Z,8.70
2019-03-31T18:25:10.542Z,8.70
2019-03-31T18:29:15.827Z,8.60
2019-03-31T18:33:21.109Z,8.50
2019-03-31T18:37:26.462Z,8.60
2019-03-31T18:41:31.737Z,8.60
2019-03-31T18:45:37.057Z,8.50
2019-03-31T18:49:42.358Z,8.60
2019-03-31T18:53:49.285Z,8.40
2019-03-31T18:57:59.056Z,8.20
2019-03-31T19:02:25.389Z,8.20
2019-03-31T19:06:50.482Z,8.20
2019-03-31T19:11:14.989Z,8.10
2019-03-31T19:15:38.558Z,8.00
2019-03-31T19:19:55.658Z,8.00
2019-03-31T19:24:05.726Z,8.00
2019-03-31T19:28:16.983Z,7.90
2019-03-31T19:32:40.119Z,7.90
2019-03-31T19:36:50.077Z,7.90
2019-03-31T19:41:05.850Z,7.90
2019-03-31T19:45:31.146Z,7.80
2019-03-31T19:49:40.942Z,7.80
2019-03-31T19:53:54.377Z,7.80
2019-03-31T19:58:18.057Z,7.80
2019-03-31T20:02:42.149Z,7.80
2019-03-31T20:06:48.735Z,7.90
2019-03-31T20:11:01.410Z,7.90
2019-03-31T20:15:09.331Z,7.90
2019-03-31T20:19:28.027Z,7.80
2019-03-31T20:23:44.254Z,7.70
2019-03-31T20:27:51.158Z,7.50
2019-03-31T20:31:58.072Z,7.40
2019-03-31T20:36:22.939Z,7.20
2019-03-31T20:40:32.754Z,7.00
2019-03-31T20:44:37.751Z,6.80
2019-03-31T20:48:42.775Z,6.50
2019-03-31T20:52:48.143Z,6.20
2019-03-31T20:56:53.134Z,6.00
2019-03-31T21:00:58.138Z,5.90
2019-03-31T21:05:03.140Z,5.70
2019-03-31T21:09:09.442Z,5.50
2019-03-31T21:13:14.487Z,5.40
2019-03-31T21:17:19.490Z,5.30
2019-03-31T21:21:24.510Z,5.20
2019-03-31T21:25:29.517Z,5.00
2019-03-31T21:29:34.515Z,4.90
2019-03-31T21:33:39.523Z,4.80
2019-03-31T21:37:44.509Z,4.70
2019-03-31T21:41:49.502Z,4.60
2019-03-31T21:45:54.510Z,4.50
2019-03-31T21:49:59.542Z,4.50
2019-03-31T21:54:04.570Z,4.30
2019-03-31T21:58:09.498Z,4.20
2019-03-31T22:02:14.549Z,4.20
2019-03-31T22:06:19.550Z,4.10
2019-03-31T22:10:24.541Z,4.00
2019-03-31T22:14:29.559Z,3.90
2019-03-31T22:18:34.535Z,3.90
2019-03-31T22:22:39.546Z,3.80
2019-03-31T22:26:44.551Z,3.80
2019-03-31T22:30:49.540Z,3.80
2019-03-31T22:34:54.534Z,3.70
2019-03-31T22:39:00.641Z,3.70
2019-03-31T22:43:08.031Z,3.70
2019-03-31T22:47:13.173Z,3.60
2019-03-31T22:51:19.346Z,3.50
2019-03-31T22:55:24.350Z,3.50
2019-03-31T22:59:29.433Z,3.40
2019-03-31T23:03:34.406Z,3.30
2019-03-31T23:07:39.434Z,3.30
2019-03-31T23:11:44.434Z,3.30
2019-03-31T23:15:49.472Z,3.20
2019-03-31T23:19:54.472Z,3.10
2019-03-31T23:23:59.479Z,3.20
2019-03-31T23:28:04.650Z,3.20
2019-03-31T23:32:09.637Z,3.10
2019-03-31T23:36:14.625Z,3.10
2019-03-31T23:40:19.626Z,3.00
2019-03-31T23:49:47.654Z,2.80
2019-03-31T23:53:53.601Z,2.60
2019-03-31T23:57:58.628Z,2.50
